createdAt,value
2018-04-13T00:00:06.534Z,12.87
2018-04-13T00:02:34.054Z,12.77
2018-04-13T00:05:01.591Z,12.53
2018-04-13T00:07:29.123Z,12.47
2018-04-13T00:09:56.639Z,12.21
2018-04-13T00:12:24.191Z,12.27
2018-04-13T00:14:51.695Z,12.30
2018-04-13T00:17:19.716Z,12.33
2018-04-13T00:19:47.255Z,12.19
2018-04-13T00:22:14.770Z,12.26
2018-04-13T00:24:42.279Z,12.14
2018-04-13T00:27:09.924Z,12.06
2018-04-13T00:29:37.435Z,12.15
2018-04-13T00:32:04.944Z,12.05
2018-04-13T00:34:32.494Z,12.02
2018-04-13T00:37:00.010Z,11.89
2018-04-13T00:39:27.519Z,11.89
2018-04-13T00:41:55.360Z,11.84
2018-04-13T00:44:22.884Z,11.86
2018-04-13T00:46:50.400Z,11.74
2018-04-13T00:49:18.521Z,11.74
2018-04-13T00:51:46.113Z,11.82
2018-04-13T00:54:14.516Z,11.68
2018-04-13T00:56:43.330Z,11.70
2018-04-13T00:59:10.839Z,11.79
2018-04-13T01:01:38.351Z,11.81
2018-04-13T01:04:06.047Z,11.75
2018-04-13T01:06:33.559Z,11.82
2018-04-13T01:09:02.045Z,11.81
2018-04-13T01:11:29.595Z,11.78
2018-04-13T01:13:57.104Z,11.62
2018-04-13T01:16:24.610Z,11.61
2018-04-13T01:18:53.085Z,11.34
2018-04-13T01:21:20.601Z,11.31
2018-04-13T01:23:48.636Z,11.17
2018-04-13T01:26:16.363Z,11.26
2018-04-13T01:28:43.880Z,11.31
2018-04-13T01:31:11.384Z,11.45
2018-04-13T01:33:39.143Z,11.37
2018-04-13T01:36:07.143Z,11.38
2018-04-13T01:38:35.523Z,11.44
2018-04-13T01:41:03.461Z,11.48
2018-04-13T01:43:31.452Z,11.45
2018-04-13T01:45:58.960Z,11.44
2018-04-13T01:48:26.655Z,11.49
2018-04-13T01:50:54.182Z,11.42
2018-04-13T01:53:22.618Z,11.33
2018-04-13T01:55:50.155Z,11.21
2018-04-13T01:58:17.672Z,11.15
2018-04-13T02:00:45.178Z,11.29
2018-04-13T02:03:12.828Z,11.33
2018-04-13T02:05:40.349Z,11.40
2018-04-13T02:08:07.856Z,11.59
2018-04-13T02:10:35.603Z,11.53
2018-04-13T02:13:03.121Z,11.51
2018-04-13T02:15:30.855Z,11.57
2018-04-13T02:17:58.953Z,11.65
2018-04-13T02:20:26.612Z,11.90
2018-04-13T02:22:54.129Z,11.89
2018-04-13T02:25:21.987Z,11.90
2018-04-13T02:27:49.495Z,11.95
2018-04-13T02:30:17.008Z,11.83
2018-04-13T02:32:44.970Z,12.02
2018-04-13T02:35:12.475Z,11.90
2018-04-13T02:37:39.984Z,11.80
2018-04-13T02:40:07.743Z,11.55
2018-04-13T02:42:35.253Z,11.24
2018-04-13T02:45:02.770Z,10.88
2018-04-13T02:47:30.427Z,10.85
2018-04-13T02:49:57.939Z,11.04
2018-04-13T02:52:25.455Z,10.72
2018-04-13T02:54:53.011Z,10.98
2018-04-13T02:57:20.536Z,11.26
2018-04-13T02:59:48.052Z,11.16
2018-04-13T03:02:15.786Z,11.19
2018-04-13T03:04:43.307Z,11.14
2018-04-13T03:07:10.847Z,11.28
2018-04-13T03:09:38.391Z,11.35
2018-04-13T03:12:05.917Z,11.46
2018-04-13T03:14:33.429Z,11.47
2018-04-13T03:17:00.971Z,11.45
2018-04-13T03:19:28.477Z,11.50
2018-04-13T03:21:56.015Z,11.47
2018-04-13T03:24:23.720Z,11.33
2018-04-13T03:26:51.229Z,11.37
2018-04-13T03:29:18.743Z,11.39
2018-04-13T03:31:46.280Z,11.46
2018-04-13T03:34:13.797Z,11.29
2018-04-13T03:36:41.303Z,11.32
2018-04-13T03:39:09.075Z,11.35
2018-04-13T03:41:36.585Z,11.35
2018-04-13T03:44:04.104Z,11.34
2018-04-13T03:46:31.960Z,11.51
2018-04-13T03:48:59.474Z,11.43
2018-04-13T03:51:26.981Z,11.54
2018-04-13T03:53:54.519Z,11.55
2018-04-13T03:56:22.032Z,11.52
2018-04-13T03:58:49.545Z,11.46
2018-04-13T04:01:17.409Z,11.69
2018-04-13T04:03:44.923Z,11.78
2018-04-13T04:06:12.435Z,11.82
2018-04-13T04:08:39.991Z,11.73
2018-04-13T04:11:07.520Z,11.77
2018-04-13T04:13:35.040Z,11.68
2018-04-13T04:16:02.683Z,11.40
2018-04-13T04:18:30.195Z,11.34
2018-04-13T04:21:09.977Z,11.61
2018-04-13T04:23:49.284Z,11.42
2018-04-13T04:26:28.948Z,11.27
2018-04-13T04:28:56.485Z,10.79
2018-04-13T04:31:24.001Z,10.79
2018-04-13T04:33:51.736Z,10.79
2018-04-13T04:36:19.273Z,10.84
2018-04-13T04:38:46.819Z,11.23
2018-04-13T04:41:14.366Z,11.08
2018-04-13T04:43:42.847Z,11.23
2018-04-13T04:46:10.365Z,11.31
2018-04-13T04:48:38.138Z,11.58
2018-04-13T04:51:05.697Z,11.47
2018-04-13T04:53:33.216Z,11.54
2018-04-13T04:56:00.920Z,11.60
2018-04-13T04:58:28.506Z,11.70
2018-04-13T05:00:56.014Z,11.69
2018-04-13T05:03:23.778Z,11.59
2018-04-13T05:05:51.304Z,11.75
2018-04-13T05:08:18.834Z,11.72
2018-04-13T05:10:46.391Z,11.76
2018-04-13T05:13:13.905Z,11.90
2018-04-13T05:15:41.423Z,11.91
2018-04-13T05:18:08.976Z,11.92
2018-04-13T05:20:36.487Z,11.46
2018-04-13T05:23:04.009Z,11.63
2018-04-13T05:25:31.919Z,11.73
2018-04-13T05:27:59.431Z,11.86
2018-04-13T05:30:27.081Z,11.87
2018-04-13T05:32:54.631Z,12.16
2018-04-13T05:35:23.092Z,12.25
2018-04-13T05:37:50.612Z,12.35
2018-04-13T05:40:18.159Z,12.38
2018-04-13T05:42:45.669Z,12.54
2018-04-13T05:45:13.191Z,12.70
2018-04-13T05:47:40.737Z,12.75
2018-04-13T05:50:08.251Z,12.90
2018-04-13T05:52:35.759Z,13.01
2018-04-13T05:55:03.552Z,13.09
2018-04-13T05:57:31.065Z,13.24
2018-04-13T05:59:58.589Z,13.28
2018-04-13T06:02:26.324Z,13.28
2018-04-13T06:04:53.836Z,13.20
2018-04-13T06:07:21.339Z,13.40
2018-04-13T06:09:49.016Z,13.35
2018-04-13T06:12:16.954Z,13.62
2018-04-13T06:14:44.668Z,13.79
2018-04-13T06:17:12.268Z,13.86
2018-04-13T06:19:39.800Z,13.99
2018-04-13T06:22:08.265Z,14.08
2018-04-13T06:24:37.531Z,13.95
2018-04-13T06:27:05.049Z,14.32
2018-04-13T06:29:32.645Z,14.62
2018-04-13T06:32:00.420Z,14.80
2018-04-13T06:34:27.935Z,15.01
2018-04-13T06:36:55.529Z,14.99
2018-04-13T06:39:23.139Z,15.31
2018-04-13T06:41:50.655Z,15.70
2018-04-13T06:44:18.231Z,15.79
2018-04-13T06:46:45.983Z,15.99
2018-04-13T06:49:13.600Z,16.17
2018-04-13T06:51:41.107Z,16.23
2018-04-13T06:54:08.667Z,16.03
2018-04-13T06:56:36.211Z,16.22
2018-04-13T06:59:03.735Z,15.96
2018-04-13T07:01:31.301Z,16.22
2018-04-13T07:03:58.924Z,16.34
2018-04-13T07:06:26.479Z,16.60
2018-04-13T07:08:54.323Z,16.54
2018-04-13T07:11:23.957Z,16.63
2018-04-13T07:13:51.460Z,16.87
2018-04-13T07:16:21.772Z,17.11
2018-04-13T07:18:49.298Z,17.13
2018-04-13T07:21:17.062Z,17.25
2018-04-13T07:23:44.896Z,17.04
2018-04-13T07:26:12.452Z,17.30
2018-04-13T07:28:41.906Z,17.49
2018-04-13T07:31:09.532Z,17.25
2018-04-13T07:33:37.047Z,17.47
2018-04-13T07:36:04.562Z,17.60
2018-04-13T07:38:32.475Z,17.41
2018-04-13T07:41:00.101Z,17.51
2018-04-13T07:43:29.695Z,17.54
2018-04-13T07:45:57.983Z,17.74
2018-04-13T07:48:26.335Z,17.85
2018-04-13T07:50:54.329Z,17.92
2018-04-13T07:53:22.196Z,17.87
2018-04-13T07:55:49.707Z,17.76
2018-04-13T07:58:18.175Z,17.61
2018-04-13T08:00:46.318Z,17.77
2018-04-13T08:03:13.435Z,17.99
2018-04-13T08:05:41.811Z,18.07
2018-04-13T08:08:09.704Z,18.12
2018-04-13T08:10:37.342Z,18.26
2018-04-13T08:13:04.817Z,18.00
2018-04-13T08:15:32.424Z,18.09
2018-04-13T08:18:00.933Z,17.99
2018-04-13T08:20:28.568Z,18.14
2018-04-13T08:22:56.288Z,17.82
2018-04-13T08:25:23.811Z,17.72
2018-04-13T08:27:51.318Z,17.62
2018-04-13T08:30:20.364Z,17.47
2018-04-13T08:32:48.773Z,17.33
2018-04-13T08:35:16.291Z,17.28
2018-04-13T08:37:44.101Z,17.06
2018-04-13T08:40:11.627Z,17.31
2018-04-13T08:42:39.203Z,16.96
2018-04-13T08:45:06.748Z,17.29
2018-04-13T08:47:34.259Z,17.03
2018-04-13T08:50:01.761Z,17.23
2018-04-13T08:52:29.528Z,17.25
2018-04-13T08:54:57.040Z,16.76
2018-04-13T08:57:24.558Z,17.11
2018-04-13T08:59:52.096Z,17.07
2018-04-13T09:02:19.604Z,16.99
2018-04-13T09:04:47.103Z,17.26
2018-04-13T09:07:14.727Z,17.01
2018-04-13T09:09:42.260Z,17.03
2018-04-13T09:12:09.770Z,16.82
2018-04-13T09:14:41.039Z,16.77
2018-04-13T09:17:08.541Z,16.73
2018-04-13T09:19:36.045Z,17.16
2018-04-13T09:22:03.771Z,16.95
2018-04-13T09:24:31.272Z,16.66
2018-04-13T09:26:58.775Z,16.63
2018-04-13T09:29:26.307Z,16.60
2018-04-13T09:31:53.817Z,16.46
2018-04-13T09:34:21.344Z,16.10
2018-04-13T09:36:49.929Z,16.26
2018-04-13T09:39:17.436Z,16.42
2018-04-13T09:41:44.947Z,16.51
2018-04-13T09:44:12.570Z,16.33
2018-04-13T09:46:40.096Z,16.26
2018-04-13T09:49:07.599Z,16.14
2018-04-13T09:51:35.155Z,15.99
2018-04-13T09:54:02.663Z,15.77
2018-04-13T09:56:30.171Z,15.68
2018-04-13T09:58:57.794Z,15.00
2018-04-13T10:01:25.298Z,14.89
2018-04-13T10:04:09.026Z,14.70
2018-04-13T10:06:36.523Z,14.53
2018-04-13T10:09:04.030Z,14.30
2018-04-13T10:11:31.908Z,14.28
2018-04-13T10:13:59.449Z,13.93
2018-04-13T10:16:26.971Z,13.68
2018-04-13T10:18:54.723Z,13.76
2018-04-13T10:21:22.242Z,13.84
2018-04-13T10:23:49.747Z,14.00
2018-04-13T10:26:21.052Z,13.96
2018-04-13T10:28:48.718Z,13.97
2018-04-13T10:31:16.232Z,14.10
2018-04-13T10:33:43.811Z,13.93
2018-04-13T10:36:11.345Z,14.33
2018-04-13T10:38:38.885Z,14.13
2018-04-13T10:41:06.721Z,14.15
2018-04-13T10:43:34.231Z,13.99
2018-04-13T10:46:01.742Z,14.05
2018-04-13T10:48:29.300Z,14.25
2018-04-13T10:50:57.700Z,13.98
2018-04-13T10:53:25.669Z,14.23
2018-04-13T10:55:53.332Z,14.07
2018-04-13T10:58:20.854Z,13.88
2018-04-13T11:00:48.402Z,13.93
2018-04-13T11:03:16.216Z,14.07
2018-04-13T11:05:43.815Z,14.06
2018-04-13T11:08:11.536Z,14.22
2018-04-13T11:10:39.711Z,14.48
2018-04-13T11:13:07.243Z,14.48
2018-04-13T11:15:35.137Z,14.43
2018-04-13T11:18:03.412Z,14.18
2018-04-13T11:20:31.278Z,14.61
2018-04-13T11:22:58.847Z,14.51
2018-04-13T11:25:26.986Z,14.22
2018-04-13T11:27:54.673Z,14.36
2018-04-13T11:30:22.442Z,14.22
2018-04-13T11:32:50.408Z,14.47
2018-04-13T11:35:18.273Z,14.66
2018-04-13T11:37:46.245Z,14.57
2018-04-13T11:40:14.006Z,14.54
2018-04-13T11:42:41.867Z,14.61
2018-04-13T11:45:09.419Z,14.52
2018-04-13T11:47:37.483Z,14.19
2018-04-13T11:50:05.055Z,14.42
2018-04-13T11:52:32.724Z,14.66
2018-04-13T11:55:01.002Z,14.52
2018-04-13T11:57:28.985Z,14.36
2018-04-13T11:59:56.725Z,14.46
2018-04-13T12:02:24.311Z,14.42
2018-04-13T12:04:52.032Z,14.30
2018-04-13T12:07:19.572Z,14.30
2018-04-13T12:09:47.463Z,14.62
2018-04-13T12:12:14.992Z,14.43
2018-04-13T12:14:42.528Z,14.44
2018-04-13T12:17:10.322Z,14.65
2018-04-13T12:19:37.977Z,14.53
2018-04-13T12:22:05.487Z,14.51
2018-04-13T12:24:33.244Z,14.56
2018-04-13T12:27:00.760Z,14.71
2018-04-13T12:29:28.279Z,14.92
2018-04-13T12:31:56.030Z,15.01
2018-04-13T12:34:23.712Z,14.91
2018-04-13T12:36:51.353Z,15.07
2018-04-13T12:39:18.907Z,15.09
2018-04-13T12:41:47.393Z,15.27
2018-04-13T12:44:14.919Z,15.17
2018-04-13T12:46:42.686Z,15.14
2018-04-13T12:49:10.244Z,15.21
2018-04-13T12:51:38.040Z,15.32
2018-04-13T12:54:05.696Z,15.21
2018-04-13T12:56:33.204Z,15.03
2018-04-13T12:59:00.727Z,14.75
2018-04-13T13:01:28.739Z,14.66
2018-04-13T13:03:56.423Z,14.71
2018-04-13T13:06:24.091Z,14.64
2018-04-13T13:08:51.790Z,15.02
2018-04-13T13:11:19.540Z,15.05
2018-04-13T13:13:47.409Z,14.88
2018-04-13T13:16:15.269Z,14.99
2018-04-13T13:18:43.345Z,14.90
2018-04-13T13:21:11.210Z,14.95
2018-04-13T13:23:39.006Z,14.74
2018-04-13T13:26:06.842Z,14.68
2018-04-13T13:28:34.667Z,14.52
2018-04-13T13:31:02.678Z,14.29
2018-04-13T13:33:30.788Z,14.50
2018-04-13T13:35:58.523Z,14.57
2018-04-13T13:38:26.558Z,14.26
2018-04-13T13:40:54.335Z,14.38
2018-04-13T13:43:22.216Z,14.38
2018-04-13T13:45:49.855Z,14.35
2018-04-13T13:48:17.535Z,14.41
2018-04-13T13:50:45.279Z,14.20
2018-04-13T13:53:13.475Z,14.09
2018-04-13T13:55:41.342Z,14.02
2018-04-13T13:58:09.168Z,13.68
2018-04-13T14:00:37.177Z,13.84
2018-04-13T14:03:05.001Z,13.81
2018-04-13T14:05:33.295Z,13.92
2018-04-13T14:08:01.161Z,14.05
2018-04-13T14:10:29.052Z,13.83
2018-04-13T14:12:56.770Z,13.89
2018-04-13T14:15:24.786Z,14.00
2018-04-13T14:17:52.970Z,13.87
2018-04-13T14:20:20.735Z,13.83
2018-04-13T14:22:48.693Z,13.95
2018-04-13T14:25:16.264Z,13.99
2018-04-13T14:27:44.121Z,13.89
2018-04-13T14:30:12.193Z,14.16
2018-04-13T14:32:39.739Z,14.21
2018-04-13T14:35:07.621Z,14.39
2018-04-13T14:37:36.097Z,14.55
2018-04-13T14:40:04.580Z,14.77
2018-04-13T14:42:32.303Z,15.09
2018-04-13T14:45:00.215Z,15.29
2018-04-13T14:47:27.835Z,15.63
2018-04-13T14:49:55.533Z,15.95
2018-04-13T14:52:23.603Z,16.12
2018-04-13T14:54:51.663Z,16.05
2018-04-13T14:57:20.464Z,16.28
2018-04-13T14:59:48.614Z,16.32
2018-04-13T15:02:16.503Z,15.79
2018-04-13T15:04:44.450Z,15.62
2018-04-13T15:07:13.218Z,15.06
2018-04-13T15:09:41.085Z,15.46
2018-04-13T15:12:09.051Z,15.41
2018-04-13T15:14:37.172Z,14.90
2018-04-13T15:17:05.037Z,15.24
2018-04-13T15:19:33.007Z,15.51
2018-04-13T15:22:01.588Z,15.40
2018-04-13T15:24:29.485Z,15.66
2018-04-13T15:26:57.829Z,16.10
2018-04-13T15:29:25.902Z,16.27
2018-04-13T15:31:53.963Z,16.40
2018-04-13T15:34:23.529Z,16.47
2018-04-13T15:36:51.857Z,16.76
2018-04-13T15:39:20.236Z,16.82
2018-04-13T15:41:47.890Z,17.02
2018-04-13T15:44:15.766Z,16.50
2018-04-13T15:46:43.533Z,16.92
2018-04-13T15:49:11.294Z,17.21
2018-04-13T15:51:39.160Z,17.20
2018-04-13T15:54:06.854Z,17.30
2018-04-13T15:56:34.895Z,17.25
2018-04-13T15:59:02.985Z,17.35
2018-04-13T16:01:30.830Z,17.42
2018-04-13T16:03:58.698Z,17.40
2018-04-13T16:06:26.667Z,17.35
2018-04-13T16:08:54.533Z,17.34
2018-04-13T16:11:22.401Z,17.52
2018-04-13T16:13:50.470Z,17.34
2018-04-13T16:16:18.338Z,17.43
2018-04-13T16:18:46.165Z,17.01
2018-04-13T16:21:14.332Z,17.18
2018-04-13T16:23:42.097Z,17.44
2018-04-13T16:26:09.964Z,17.34
2018-04-13T16:28:37.587Z,17.20
2018-04-13T16:31:05.316Z,17.25
2018-04-13T16:33:33.087Z,17.05
2018-04-13T16:36:01.271Z,16.93
2018-04-13T16:38:29.033Z,16.79
2018-04-13T16:40:56.906Z,16.61
2018-04-13T16:43:25.074Z,16.59
2018-04-13T16:45:52.945Z,16.53
2018-04-13T16:48:20.601Z,16.40
2018-04-13T16:50:48.776Z,16.04
2018-04-13T16:53:16.746Z,16.11
2018-04-13T16:55:44.614Z,16.04
2018-04-13T16:58:12.892Z,16.01
2018-04-13T17:00:40.650Z,16.09
2018-04-13T17:03:08.293Z,16.12
2018-04-13T17:05:36.778Z,16.12
2018-04-13T17:08:04.763Z,16.05
2018-04-13T17:10:32.424Z,15.80
2018-04-13T17:13:01.520Z,16.00
2018-04-13T17:15:29.351Z,15.76
2018-04-13T17:17:57.117Z,15.76
2018-04-13T17:20:25.099Z,15.64
2018-04-13T17:22:53.603Z,15.69
2018-04-13T17:25:21.466Z,15.65
2018-04-13T17:27:49.844Z,15.53
2018-04-13T17:30:17.710Z,15.50
2018-04-13T17:32:45.477Z,15.50
2018-04-13T17:35:13.356Z,15.42
2018-04-13T17:37:41.212Z,15.28
2018-04-13T17:40:09.470Z,15.28
2018-04-13T17:42:37.658Z,15.11
2018-04-13T17:45:05.525Z,15.08
2018-04-13T17:47:33.390Z,14.92
2018-04-13T17:50:01.360Z,14.96
2018-04-13T17:52:29.226Z,14.94
2018-04-13T17:54:57.928Z,14.79
2018-04-13T17:57:26.310Z,14.75
2018-04-13T17:59:54.157Z,14.72
2018-04-13T18:02:22.025Z,14.61
2018-04-13T18:04:49.788Z,14.60
2018-04-13T18:07:17.655Z,14.31
2018-04-13T18:09:45.522Z,14.43
2018-04-13T18:12:14.617Z,14.40
2018-04-13T18:14:42.996Z,14.27
2018-04-13T18:17:10.662Z,14.13
2018-04-13T18:19:38.934Z,13.99
2018-04-13T18:22:06.903Z,13.86
2018-04-13T18:24:34.726Z,13.77
2018-04-13T18:27:02.921Z,13.74
2018-04-13T18:29:30.810Z,13.66
2018-04-13T18:31:58.576Z,13.65
2018-04-13T18:34:27.567Z,13.56
2018-04-13T18:36:55.441Z,13.48
2018-04-13T18:39:23.350Z,13.43
2018-04-13T18:41:51.577Z,13.35
2018-04-13T18:44:19.443Z,13.26
2018-04-13T18:46:47.317Z,13.21
2018-04-13T18:49:15.795Z,13.13
2018-04-13T18:51:43.596Z,13.09
2018-04-13T18:54:11.383Z,12.99
2018-04-13T18:56:39.392Z,12.90
2018-04-13T18:59:07.260Z,12.84
2018-04-13T19:01:35.132Z,12.78
2018-04-13T19:04:03.049Z,12.73
2018-04-13T19:06:31.064Z,12.67
2018-04-13T19:08:58.931Z,12.78
2018-04-13T19:11:27.408Z,12.73
2018-04-13T19:13:55.278Z,12.66
2018-04-13T19:16:23.246Z,12.56
2018-04-13T19:18:51.348Z,12.37
2018-04-13T19:21:19.489Z,12.30
2018-04-13T19:23:48.287Z,12.32
2018-04-13T19:26:16.258Z,12.28
2018-04-13T19:28:44.118Z,12.18
2018-04-13T19:31:12.700Z,12.11
2018-04-13T19:33:40.504Z,12.24
2018-04-13T19:36:08.329Z,12.19
2018-04-13T19:38:36.588Z,12.30
2018-04-13T19:41:04.882Z,12.25
2018-04-13T19:43:32.668Z,12.42
2018-04-13T19:46:00.512Z,12.52
2018-04-13T19:48:29.503Z,12.44
2018-04-13T19:50:58.503Z,12.42
2018-04-13T19:53:26.978Z,12.44
2018-04-13T19:55:55.228Z,12.61
2018-04-13T19:58:23.385Z,12.53
2018-04-13T20:00:51.261Z,12.66
2018-04-13T20:03:19.428Z,12.67
2018-04-13T20:05:47.437Z,12.57
2018-04-13T20:08:15.817Z,12.48
2018-04-13T20:10:43.889Z,12.46
2018-04-13T20:13:11.725Z,12.42
2018-04-13T20:15:39.991Z,12.26
2018-04-13T20:18:08.107Z,12.28
2018-04-13T20:20:37.201Z,12.26
2018-04-13T20:23:05.726Z,12.12
2018-04-13T20:25:34.857Z,12.10
2018-04-13T20:28:05.774Z,12.04
2018-04-13T20:30:34.297Z,11.95
2018-04-13T20:33:03.090Z,11.89
2018-04-13T20:35:31.952Z,11.75
2018-04-13T20:37:59.840Z,11.81
2018-04-13T20:40:27.759Z,11.75
2018-04-13T20:42:55.778Z,11.70
2018-04-13T20:45:24.129Z,11.61
2018-04-13T20:47:52.339Z,11.56
2018-04-13T20:50:20.921Z,11.23
2018-04-13T20:52:52.556Z,11.44
2018-04-13T20:55:20.953Z,11.52
2018-04-13T20:57:51.067Z,11.60
2018-04-13T21:00:19.447Z,11.63
2018-04-13T21:02:48.099Z,11.80
2018-04-13T21:05:16.074Z,11.78
2018-04-13T21:07:43.852Z,11.48
2018-04-13T21:10:11.731Z,11.25
2018-04-13T21:12:39.508Z,11.41
2018-04-13T21:15:07.059Z,11.31
2018-04-13T21:17:34.817Z,11.34
2018-04-13T21:20:02.479Z,11.40
2018-04-13T21:22:30.232Z,11.13
2018-04-13T21:24:57.991Z,11.17
2018-04-13T21:27:25.726Z,11.18
2018-04-13T21:29:53.265Z,10.76
2018-04-13T21:32:21.092Z,10.72
2018-04-13T21:34:48.655Z,10.68
2018-04-13T21:37:16.216Z,10.76
2018-04-13T21:39:43.980Z,10.54
2018-04-13T21:42:12.256Z,10.69
2018-04-13T21:44:40.122Z,10.64
2018-04-13T21:47:09.886Z,10.94
2018-04-13T21:49:37.496Z,10.78
2018-04-13T21:52:05.245Z,10.66
2018-04-13T21:54:33.310Z,10.55
2018-04-13T21:57:01.093Z,10.16
2018-04-13T21:59:28.663Z,10.23
2018-04-13T22:01:56.251Z,10.29
2018-04-13T22:04:24.077Z,9.95
2018-04-13T22:06:51.797Z,9.97
2018-04-13T22:09:19.590Z,10.08
2018-04-13T22:11:47.252Z,10.10
2018-04-13T22:14:26.677Z,10.15
2018-04-13T22:16:54.367Z,10.05
2018-04-13T22:19:22.030Z,10.01
2018-04-13T22:21:50.368Z,10.02
2018-04-13T22:24:18.070Z,9.95
2018-04-13T22:26:45.646Z,9.97
2018-04-13T22:29:13.439Z,10.22
2018-04-13T22:31:40.991Z,9.77
2018-04-13T22:34:08.923Z,9.78
2018-04-13T22:36:36.772Z,10.01
2018-04-13T22:39:04.378Z,10.14
2018-04-13T22:41:31.916Z,10.10
2018-04-13T22:43:59.641Z,10.13
2018-04-13T22:46:27.151Z,10.23
2018-04-13T22:48:54.654Z,10.29
2018-04-13T22:51:22.319Z,10.30
2018-04-13T22:53:49.828Z,10.32
2018-04-13T22:56:17.338Z,10.36
2018-04-13T22:58:45.206Z,10.27
2018-04-13T23:01:12.753Z,9.86
2018-04-13T23:03:40.263Z,9.47
2018-04-13T23:06:08.191Z,10.02
2018-04-13T23:08:35.699Z,9.82
2018-04-13T23:11:03.235Z,9.95
2018-04-13T23:13:30.863Z,9.68
2018-04-13T23:15:58.773Z,9.74
2018-04-13T23:18:26.325Z,10.15
2018-04-13T23:20:54.116Z,9.94
2018-04-13T23:23:27.324Z,10.21
2018-04-13T23:25:54.860Z,10.39
2018-04-13T23:28:22.472Z,10.50
2018-04-13T23:30:50.002Z,10.35
2018-04-13T23:33:17.564Z,10.39
2018-04-13T23:35:45.083Z,10.39
2018-04-13T23:38:12.599Z,10.02
2018-04-13T23:40:40.405Z,9.92
2018-04-13T23:43:07.979Z,10.00
2018-04-13T23:45:35.497Z,9.84
2018-04-13T23:48:03.996Z,9.83
2018-04-13T23:50:31.523Z,9.96
2018-04-13T23:52:59.333Z,9.99
2018-04-13T23:55:27.059Z,10.10
2018-04-13T23:57:54.566Z,10.14
